PASL Airport (Sleetmute) Information

FAA: SLQ - ICAO: PASL

PASL Airport Location

State Alaska
County Bethel
City Sleetmute
PASL Airport is 0 miles east of Sleetmute, AK.
Latitude 61-42-01.8000N
Longitude 157-09-57.1000W
Elevation 191ft

PASL Airport METARs

METAR PASL 180756Z AUTO 00000KT 10SM CLR M02/M06 A2962 RMK AO2 SLP022 T10171056 FZRANO
Altimeter 29.62"
Temperature -1.7°C (28.9°F)
Wind 0° at 0KT
Clouds Skies are clear.
Visibility 10.0mi
Time observed: 2021-10-18T07:56:00Z

PASL Airport Details

Status Operational
Activation November 1949
Ownership Public
Usage Public
Chart MC GRATH
ATC on-site No
Beacon schedule sunset-sunrise
Beacon color clear

PASL Airport Contacts

Owner ALASKA DOT&PF CENTRAL REGION
Owner address PO BOX 196900, ANCHORAGE, AK 99519-6900
Owner phone 907-269-0749
Manager ERIK WEINGARTH
Manager address PO BOX 135, ST MARY'S, AK 99658
Manager phone 907-438-2416

PASL Airport (Sleetmute) Radio Frequencies

PASL (Airport) Radio Frequencies

UNICOM 122.8
Common traffic advisory frequency (CTAF) 122.8